Chemstar Masa — 3FGM7 — position and weather

sailwx.info

Track history (hours):
 
Tides and Currents Weather Stations Pressure Air Temp Water Temp Dewpoint Dewpoint Depression Visibility Wind Speed Wind Dir Waves Ship Positions

Chemstar Masa

Last reported at 2016-Jul-25 18:03 UTC. Time now 2016-Jul-27 03:44 UTC.
Position N 33°24' W 008°36'.

Length 141 m; draft 9.7 m.

Type: Ship (hazmat cat B). MMSI: 353456000.

Date/timePositionNaut miles runAvg speedWind from/ knotsBaromVisibWave heightAir tempDewpointWater temp
2016-Jul-25 18:03N 33°24' W 008°36'713.9
2016-Jul-25 17:32N 33°31' W 008°33'1414.0
2016-Jul-25 16:33N 33°44' W 008°27'1414.1
2016-Jul-25 15:34N 33°57' W 008°21'1513.9
2016-Jul-25 14:30N 34°11' W 008°14'5513.6
2016-Jul-25 10:28N 35°02' W 007°50'  
2016-Jul-21 08:19N 37°05' W 006°54'0 0.0
2016-Jul-21 07:25N 37°05' W 006°54'0 0.0
2016-Jul-21 06:31N 37°05' W 006°54'0 0.0
2016-Jul-21 05:31N 37°05' W 006°54'  
2016-Jul-17 03:20N 36°33' W 007°28'2512.6
2016-Jul-17 01:22N 36°15' W 007°49'7012.0
2016-Jul-16 19:31N 35°16' W 008°36'2613.0
2016-Jul-16 17:30N 34°49' W 008°33'5012.2
2016-Jul-16 13:24N 34°00' W 008°23'  
Track history (hours):
 
Tides and Currents Weather Stations Pressure Air Temp Water Temp Dewpoint Dewpoint Depression Visibility Wind Speed Wind Dir Waves Ship Positions

Chemstar Masa

Last reported at 2016-Jul-25 18:03 UTC. Time now 2016-Jul-27 03:44 UTC.
Position N 33°24' W 008°36'.

Length 141 m; draft 9.7 m.

Type: Ship (hazmat cat B). MMSI: 353456000.

Date/timePositionNaut miles runAvg speedWind from/ knotsBaromVisibWave heightAir tempDewpointWater temp
2016-Jul-25 18:03N 33°24' W 008°36'713.9
2016-Jul-25 17:32N 33°31' W 008°33'1414.0
2016-Jul-25 16:33N 33°44' W 008°27'1414.1
2016-Jul-25 15:34N 33°57' W 008°21'1513.9
2016-Jul-25 14:30N 34°11' W 008°14'5513.6
2016-Jul-25 10:28N 35°02' W 007°50'  
2016-Jul-21 08:19N 37°05' W 006°54'0 0.0
2016-Jul-21 07:25N 37°05' W 006°54'0 0.0
2016-Jul-21 06:31N 37°05' W 006°54'0 0.0
2016-Jul-21 05:31N 37°05' W 006°54'  
2016-Jul-17 03:20N 36°33' W 007°28'2512.6
2016-Jul-17 01:22N 36°15' W 007°49'7012.0
2016-Jul-16 19:31N 35°16' W 008°36'2613.0
2016-Jul-16 17:30N 34°49' W 008°33'5012.2
2016-Jul-16 13:24N 34°00' W 008°23'  

Dump ship's entire track history